Time;durP1;ratioP1;P1;durP2;ratioP2;P2;SDS_P1;SDS_P2;PMS_P1;PMS_P2;Temp;Humidity;BMP_temperature;BMP_pressure;BME280_temperature;BME280_humidity;BME280_pressure;Samples;Min_cycle;Max_cycle;Signal;HPM_P1;HPM_P2
2023/08/05 00:00:14;;;;;;;0.68;0.50;;;19.10;77.70;;;;;;5043603;28;20034;-61
2023/08/05 00:02:40;;;;;;;1.90;1.02;;;19.10;77.60;;;;;;5051899;28;20548;-61
2023/08/05 00:05:09;;;;;;;0.50;0.50;;;19.10;77.50;;;;;;5033992;28;20378;-61
2023/08/05 00:07:35;;;;;;;1.20;0.68;;;19.10;77.50;;;;;;5051545;28;20058;-61
2023/08/05 00:10:00;;;;;;;0.90;0.80;;;19.10;77.50;;;;;;5055884;28;20020;-62
2023/08/05 00:12:26;;;;;;;0.50;0.50;;;19.10;77.60;;;;;;5052858;28;20035;-61
2023/08/05 00:14:52;;;;;;;0.70;0.68;;;19.10;77.60;;;;;;5051420;28;20038;-61
2023/08/05 00:17:17;;;;;;;0.50;0.45;;;19.00;77.50;;;;;;5049149;28;20021;-61
2023/08/05 00:19:43;;;;;;;0.75;0.50;;;19.00;77.70;;;;;;5051874;28;20086;-61
2023/08/05 00:22:09;;;;;;;0.40;0.40;;;18.90;77.60;;;;;;5061113;28;20391;-61
2023/08/05 00:24:35;;;;;;;1.02;0.60;;;18.90;77.70;;;;;;5049469;28;20021;-61
2023/08/05 00:27:01;;;;;;;0.75;0.70;;;18.90;78.30;;;;;;5046780;28;20053;-61
2023/08/05 00:29:26;;;;;;;0.60;0.40;;;18.90;77.80;;;;;;5049255;28;20048;-63
2023/08/05 00:31:52;;;;;;;0.57;0.45;;;18.90;77.90;;;;;;5054545;28;20033;-63
2023/08/05 00:34:18;;;;;;;2.95;1.02;;;18.90;77.90;;;;;;5052027;28;20464;-63
2023/08/05 00:36:43;;;;;;;2.17;0.68;;;18.90;78.00;;;;;;5034344;28;20088;-63
2023/08/05 00:39:09;;;;;;;0.63;0.63;;;18.90;78.00;;;;;;5053898;28;20024;-63
2023/08/05 00:41:35;;;;;;;1.13;0.75;;;18.80;77.90;;;;;;5047677;28;20029;-63
2023/08/05 00:44:00;;;;;;;0.50;0.47;;;18.80;77.90;;;;;;5051985;28;20115;-62
2023/08/05 00:46:26;;;;;;;1.25;0.70;;;18.80;77.90;;;;;;5040039;28;20033;-62
2023/08/05 00:48:52;;;;;;;0.80;0.55;;;18.80;78.00;;;;;;5048531;28;20236;-63
2023/08/05 00:51:20;;;;;;;0.73;0.30;;;18.80;78.00;;;;;;5046808;28;20057;-63
2023/08/05 00:53:47;;;;;;;0.85;0.60;;;18.80;78.00;;;;;;5048280;28;20024;-62
2023/08/05 00:56:16;;;;;;;0.63;0.63;;;18.80;78.00;;;;;;5043889;28;20447;-61
2023/08/05 00:58:45;;;;;;;0.95;0.88;;;18.70;78.00;;;;;;5040801;28;20522;-61
2023/08/05 01:01:11;;;;;;;0.60;0.60;;;18.70;78.10;;;;;;5040091;28;20120;-61
2023/08/05 01:03:38;;;;;;;0.90;0.80;;;18.70;78.20;;;;;;5045881;28;20149;-61
2023/08/05 01:06:05;;;;;;;0.55;0.50;;;18.70;78.30;;;;;;5057363;28;20076;-61
2023/08/05 01:08:32;;;;;;;4.82;0.73;;;18.70;78.30;;;;;;5051133;28;20482;-61
2023/08/05 01:11:00;;;;;;;1.25;0.68;;;18.70;78.40;;;;;;5050835;28;20491;-61
2023/08/05 01:13:26;;;;;;;0.95;0.82;;;18.70;78.40;;;;;;5046558;28;20341;-61
2023/08/05 01:15:52;;;;;;;0.95;0.60;;;18.70;78.50;;;;;;5045952;28;20030;-61
2023/08/05 01:18:18;;;;;;;0.95;0.63;;;18.70;78.50;;;;;;5047157;28;20380;-61
2023/08/05 01:20:52;;;;;;;0.50;0.50;;;18.70;78.40;;;;;;5050932;28;20052;-60
2023/08/05 01:23:24;;;;;;;0.82;0.80;;;18.70;78.40;;;;;;5048025;28;20016;-61
2023/08/05 01:25:51;;;;;;;1.00;0.77;;;18.70;78.50;;;;;;5049879;28;20032;-61
2023/08/05 01:28:17;;;;;;;0.73;0.73;;;18.70;78.50;;;;;;5046284;28;20493;-63
2023/08/05 01:30:44;;;;;;;0.65;0.60;;;18.60;78.40;;;;;;5052946;28;20033;-63
2023/08/05 01:33:12;;;;;;;2.55;0.82;;;18.60;78.40;;;;;;5043847;28;20033;-63
2023/08/05 01:35:37;;;;;;;0.95;0.82;;;18.60;78.50;;;;;;5057615;28;20028;-64
2023/08/05 01:38:03;;;;;;;0.90;0.73;;;18.60;78.60;;;;;;5050386;28;20025;-62
2023/08/05 01:40:29;;;;;;;1.95;0.73;;;18.50;78.60;;;;;;5052020;28;20036;-63
2023/08/05 01:42:58;;;;;;;0.90;0.60;;;18.50;78.60;;;;;;5048809;28;20029;-63
2023/08/05 01:45:24;;;;;;;0.90;0.70;;;18.50;78.70;;;;;;5053527;28;20048;-62
2023/08/05 01:47:50;;;;;;;1.25;0.77;;;18.50;78.70;;;;;;5053920;28;20491;-62
2023/08/05 01:50:16;;;;;;;0.68;0.60;;;18.50;78.90;;;;;;5047224;28;20103;-63
2023/08/05 01:52:41;;;;;;;0.63;0.63;;;18.40;78.60;;;;;;5051434;28;20041;-63
2023/08/05 01:55:07;;;;;;;0.65;0.60;;;18.40;78.70;;;;;;5049565;28;20034;-63
2023/08/05 01:57:33;;;;;;;1.38;0.80;;;18.40;78.80;;;;;;5042223;28;20370;-63
2023/08/05 01:59:59;;;;;;;0.80;0.60;;;18.40;79.00;;;;;;5050371;28;20608;-61
2023/08/05 02:02:24;;;;;;;0.88;0.60;;;18.40;79.00;;;;;;5048323;28;20416;-61
2023/08/05 02:04:50;;;;;;;1.42;1.17;;;18.30;79.00;;;;;;5052649;28;20432;-61
2023/08/05 02:07:15;;;;;;;2.92;1.15;;;18.30;79.20;;;;;;5053835;28;20443;-62
2023/08/05 02:09:41;;;;;;;0.80;0.68;;;18.30;79.30;;;;;;5056901;28;20129;-63
2023/08/05 02:12:07;;;;;;;0.80;0.63;;;18.30;79.30;;;;;;5048869;28;20048;-63
2023/08/05 02:14:33;;;;;;;1.42;0.70;;;18.30;79.30;;;;;;5045532;28;20033;-62
2023/08/05 02:16:58;;;;;;;1.42;0.85;;;18.30;79.30;;;;;;5041245;28;20480;-63
2023/08/05 02:19:24;;;;;;;0.88;0.68;;;18.30;79.30;;;;;;5054698;28;20106;-63
2023/08/05 02:21:50;;;;;;;0.93;0.85;;;18.40;79.30;;;;;;5038318;28;20124;-63
2023/08/05 02:24:15;;;;;;;1.55;1.00;;;18.40;79.30;;;;;;5056205;28;20487;-62
2023/08/05 02:26:44;;;;;;;0.95;0.70;;;18.40;79.20;;;;;;5053090;28;20512;-63
2023/08/05 02:29:09;;;;;;;0.93;0.70;;;18.40;79.20;;;;;;5048107;28;20033;-62
2023/08/05 02:31:35;;;;;;;0.85;0.60;;;18.40;79.20;;;;;;5053964;28;20036;-63
2023/08/05 02:34:01;;;;;;;1.10;0.65;;;18.40;79.20;;;;;;5033754;28;20032;-63
2023/08/05 02:36:26;;;;;;;1.10;0.88;;;18.40;79.30;;;;;;5045199;28;20087;-63
2023/08/05 02:38:52;;;;;;;0.80;0.60;;;18.30;79.30;;;;;;5053904;28;20024;-63
2023/08/05 02:41:18;;;;;;;0.70;0.70;;;18.30;79.40;;;;;;5050164;28;20037;-62
2023/08/05 02:43:43;;;;;;;0.52;0.40;;;18.30;79.40;;;;;;5045197;28;20030;-60
2023/08/05 02:46:09;;;;;;;1.10;0.98;;;18.30;79.40;;;;;;5046641;28;20476;-61
2023/08/05 02:48:35;;;;;;;1.30;0.75;;;18.30;79.40;;;;;;5046867;28;20392;-61
2023/08/05 02:51:00;;;;;;;1.17;0.70;;;18.30;79.40;;;;;;5047776;28;20451;-61
2023/08/05 02:53:28;;;;;;;0.70;0.70;;;18.30;79.40;;;;;;5046638;28;20273;-63
2023/08/05 02:55:53;;;;;;;0.32;0.32;;;18.30;79.40;;;;;;5048159;28;20535;-63
2023/08/05 02:58:19;;;;;;;0.90;0.60;;;18.20;79.40;;;;;;5037467;28;20040;-63
2023/08/05 03:00:46;;;;;;;1.73;0.90;;;18.30;79.40;;;;;;5046382;28;20107;-63
2023/08/05 03:03:12;;;;;;;1.40;0.95;;;18.20;79.40;;;;;;5054605;28;20037;-63
2023/08/05 03:05:38;;;;;;;1.80;0.60;;;18.20;79.50;;;;;;5045322;28;20029;-63
2023/08/05 03:08:04;;;;;;;0.77;0.77;;;18.20;79.50;;;;;;5054777;28;20040;-63
2023/08/05 03:10:30;;;;;;;0.63;0.63;;;18.20;79.60;;;;;;5058708;28;20488;-63
2023/08/05 03:12:55;;;;;;;0.88;0.77;;;18.20;79.60;;;;;;5049372;28;20055;-63
2023/08/05 03:15:21;;;;;;;0.70;0.70;;;18.10;79.60;;;;;;5048885;28;20037;-63
2023/08/05 03:17:47;;;;;;;0.82;0.70;;;18.10;79.70;;;;;;5047509;28;20115;-63
2023/08/05 03:20:24;;;;;;;0.70;0.50;;;18.10;79.70;;;;;;5057856;28;20112;-63
2023/08/05 03:22:52;;;;;;;1.30;0.80;;;18.10;79.70;;;;;;5041575;28;20086;-63
2023/08/05 03:25:18;;;;;;;0.60;0.60;;;18.10;79.80;;;;;;5052663;28;20548;-63
2023/08/05 03:27:44;;;;;;;0.85;0.73;;;18.10;79.80;;;;;;5045074;28;20025;-63
2023/08/05 03:30:10;;;;;;;0.52;0.52;;;18.00;79.80;;;;;;5046452;28;20033;-63
2023/08/05 03:32:35;;;;;;;0.57;0.50;;;18.00;79.70;;;;;;5046601;28;20041;-61
2023/08/05 03:35:01;;;;;;;0.40;0.40;;;18.00;79.70;;;;;;5043954;28;20033;-61
2023/08/05 03:37:27;;;;;;;0.57;0.52;;;18.00;79.70;;;;;;5048064;28;20036;-61
2023/08/05 03:39:52;;;;;;;0.75;0.60;;;17.90;79.70;;;;;;5057324;28;20400;-60
2023/08/05 03:42:18;;;;;;;0.68;0.68;;;17.90;79.80;;;;;;5047025;28;20500;-61
2023/08/05 03:44:44;;;;;;;1.55;0.40;;;17.90;79.80;;;;;;5048735;28;20030;-61
2023/08/05 03:47:09;;;;;;;1.25;0.80;;;17.80;79.80;;;;;;5050046;28;20557;-61
2023/08/05 03:49:35;;;;;;;0.73;0.50;;;17.80;79.80;;;;;;5050868;28;20038;-61
2023/08/05 03:52:02;;;;;;;3.03;0.65;;;17.70;79.80;;;;;;5042999;28;20044;-61
2023/08/05 03:54:28;;;;;;;1.38;0.82;;;17.70;79.80;;;;;;5047744;28;20044;-61
2023/08/05 03:56:53;;;;;;;1.15;0.70;;;17.70;79.80;;;;;;5040887;28;20042;-61
2023/08/05 03:59:20;;;;;;;0.95;0.70;;;17.70;79.90;;;;;;5042237;28;21885;-61
2023/08/05 04:01:47;;;;;;;1.98;0.65;;;17.60;79.90;;;;;;5044918;28;20063;-61
2023/08/05 04:04:12;;;;;;;1.05;0.50;;;17.60;79.90;;;;;;5037936;28;20029;-61
2023/08/05 04:06:38;;;;;;;0.80;0.60;;;17.60;79.80;;;;;;5046289;28;20426;-61
2023/08/05 04:09:06;;;;;;;2.13;0.70;;;17.60;79.80;;;;;;5051777;28;20112;-61
2023/08/05 04:11:32;;;;;;;0.82;0.50;;;17.50;79.80;;;;;;5055914;28;20173;-61
2023/08/05 04:13:59;;;;;;;1.30;0.90;;;17.50;79.90;;;;;;5046807;28;20068;-63
2023/08/05 04:16:27;;;;;;;0.60;0.50;;;17.50;79.90;;;;;;5047007;28;20029;-63
2023/08/05 04:18:53;;;;;;;0.70;0.70;;;17.50;79.90;;;;;;5051051;28;20033;-63
2023/08/05 04:21:20;;;;;;;0.70;0.55;;;17.60;80.00;;;;;;5041816;28;20104;-63
2023/08/05 04:23:46;;;;;;;0.70;0.65;;;17.60;80.00;;;;;;5049470;28;20028;-63
2023/08/05 04:26:12;;;;;;;0.63;0.60;;;17.60;80.00;;;;;;5050847;28;20048;-63
2023/08/05 04:28:38;;;;;;;2.78;0.70;;;17.60;80.00;;;;;;5042130;28;20064;-63
2023/08/05 04:31:04;;;;;;;1.00;0.65;;;17.60;80.00;;;;;;5048920;28;20037;-63
2023/08/05 04:33:32;;;;;;;1.23;0.82;;;17.70;80.00;;;;;;5054048;28;20111;-63
2023/08/05 04:35:59;;;;;;;1.05;0.63;;;17.70;80.10;;;;;;5048787;28;20084;-63
2023/08/05 04:38:25;;;;;;;2.10;1.10;;;17.70;80.10;;;;;;5044750;28;20488;-63
2023/08/05 04:40:51;;;;;;;2.15;1.13;;;17.80;80.10;;;;;;5041190;28;20087;-61
2023/08/05 04:43:17;;;;;;;1.30;0.82;;;17.80;80.20;;;;;;5046638;28;20512;-61
2023/08/05 04:45:43;;;;;;;0.90;0.80;;;17.80;80.10;;;;;;5047216;28;20033;-61
2023/08/05 04:48:09;;;;;;;1.80;0.85;;;17.90;80.00;;;;;;5045115;28;20051;-61
2023/08/05 04:50:38;;;;;;;1.67;1.10;;;17.90;80.00;;;;;;5047769;28;20036;-61
2023/08/05 04:53:05;;;;;;;6.43;1.02;;;18.00;80.10;;;;;;5046551;28;20447;-61
2023/08/05 04:55:30;;;;;;;1.10;0.90;;;18.00;80.20;;;;;;5054608;28;20061;-61
2023/08/05 04:57:56;;;;;;;1.17;0.90;;;18.00;80.30;;;;;;5048346;28;20068;-63
2023/08/05 05:00:22;;;;;;;1.13;0.60;;;18.10;80.30;;;;;;5047555;28;20043;-63
2023/08/05 05:02:48;;;;;;;1.13;0.77;;;18.10;80.30;;;;;;5051617;28;20060;-64
2023/08/05 05:05:14;;;;;;;1.52;0.93;;;18.10;80.30;;;;;;5051841;28;20039;-64
2023/08/05 05:07:40;;;;;;;1.85;1.17;;;18.10;80.30;;;;;;5047714;28;20033;-63
2023/08/05 05:10:06;;;;;;;1.30;0.90;;;18.20;80.40;;;;;;5057210;28;20571;-64
2023/08/05 05:12:32;;;;;;;5.32;0.77;;;18.20;80.40;;;;;;5051169;28;20041;-63
2023/08/05 05:14:57;;;;;;;0.85;0.77;;;18.20;80.50;;;;;;5049776;28;20056;-63
2023/08/05 05:17:23;;;;;;;1.38;0.80;;;18.20;80.50;;;;;;5057670;28;20036;-63
2023/08/05 05:19:49;;;;;;;0.70;0.70;;;18.20;80.50;;;;;;5056721;28;20032;-63
2023/08/05 05:22:18;;;;;;;1.10;0.98;;;18.20;80.40;;;;;;5052547;28;20017;-61
2023/08/05 05:24:45;;;;;;;0.85;0.85;;;18.20;80.50;;;;;;5047882;28;20033;-61
2023/08/05 05:27:13;;;;;;;1.02;0.90;;;18.30;80.60;;;;;;5056628;28;20025;-61
2023/08/05 05:29:40;;;;;;;1.85;1.20;;;18.30;80.50;;;;;;5045273;28;20090;-61
2023/08/05 05:32:06;;;;;;;3.15;1.25;;;18.30;80.50;;;;;;5052637;28;20116;-61
2023/08/05 05:34:32;;;;;;;0.95;0.70;;;18.30;80.50;;;;;;5055515;28;20223;-61
2023/08/05 05:36:57;;;;;;;1.35;1.00;;;18.40;80.50;;;;;;5048275;28;20530;-61
2023/08/05 05:39:23;;;;;;;1.27;1.00;;;18.40;80.50;;;;;;5053032;28;20064;-63
2023/08/05 05:41:49;;;;;;;1.73;1.23;;;18.40;80.50;;;;;;5050980;28;20100;-61
2023/08/05 05:44:14;;;;;;;1.27;1.17;;;18.40;80.50;;;;;;5049706;28;20116;-61
2023/08/05 05:46:42;;;;;;;1.38;1.05;;;18.50;80.50;;;;;;5048154;28;20418;-63
2023/08/05 05:49:09;;;;;;;1.65;1.25;;;18.50;81.10;;;;;;5049306;28;20036;-64
2023/08/05 05:51:35;;;;;;;2.15;0.95;;;18.60;80.50;;;;;;5050364;28;20470;-64
2023/08/05 05:54:00;;;;;;;1.50;1.15;;;18.60;80.30;;;;;;5044697;28;20116;-63
2023/08/05 05:56:26;;;;;;;1.67;1.20;;;18.60;80.20;;;;;;5052186;28;20286;-64
2023/08/05 05:58:52;;;;;;;1.98;1.20;;;18.70;80.20;;;;;;5054819;28;20033;-64
2023/08/05 06:01:17;;;;;;;0.80;0.80;;;18.70;80.20;;;;;;5049365;28;20037;-64
2023/08/05 06:03:43;;;;;;;2.33;1.10;;;18.70;80.20;;;;;;5043801;28;20099;-64
2023/08/05 06:06:09;;;;;;;1.98;1.23;;;18.70;80.20;;;;;;5050454;28;20057;-63
2023/08/05 06:08:35;;;;;;;4.00;1.20;;;18.70;80.20;;;;;;5047813;28;20102;-64
2023/08/05 06:11:04;;;;;;;1.67;1.15;;;18.70;80.20;;;;;;5063048;28;20040;-64
2023/08/05 06:13:30;;;;;;;0.73;0.73;;;18.80;80.30;;;;;;5052459;28;20061;-64
2023/08/05 06:15:56;;;;;;;1.63;1.10;;;18.80;80.30;;;;;;5052690;28;20127;-64
2023/08/05 06:18:22;;;;;;;1.40;0.95;;;18.80;80.20;;;;;;5049598;28;20076;-64
2023/08/05 06:20:50;;;;;;;2.15;1.02;;;18.80;80.30;;;;;;5048381;28;20036;-64
2023/08/05 06:23:16;;;;;;;1.52;1.25;;;18.80;80.20;;;;;;5043434;28;20112;-64
2023/08/05 06:25:42;;;;;;;1.95;1.13;;;18.90;80.20;;;;;;5050524;28;20552;-64
2023/08/05 06:28:08;;;;;;;1.42;1.00;;;18.90;80.20;;;;;;5048147;28;20029;-64
2023/08/05 06:30:34;;;;;;;4.47;1.88;;;19.00;80.20;;;;;;5040057;28;20087;-64
2023/08/05 06:33:00;;;;;;;2.42;1.65;;;19.00;80.70;;;;;;5053730;28;20021;-64
2023/08/05 06:35:26;;;;;;;3.22;1.35;;;19.10;80.10;;;;;;5042883;28;20052;-64
2023/08/05 06:37:52;;;;;;;4.93;1.30;;;19.10;80.10;;;;;;5044597;28;20029;-64
2023/08/05 06:40:18;;;;;;;1.45;1.15;;;19.10;80.10;;;;;;5056490;28;20029;-64
2023/08/05 06:42:44;;;;;;;2.03;1.48;;;19.20;80.00;;;;;;5048103;28;20541;-64
2023/08/05 06:45:10;;;;;;;2.20;1.67;;;19.20;79.90;;;;;;5043570;28;20029;-64
2023/08/05 06:47:36;;;;;;;1.52;1.35;;;19.30;80.00;;;;;;5049140;28;20029;-64
2023/08/05 06:50:06;;;;;;;2.22;1.50;;;19.40;80.00;;;;;;5050108;28;20529;-64
2023/08/05 06:52:33;;;;;;;2.38;1.50;;;19.40;79.90;;;;;;5049201;28;20067;-63
2023/08/05 06:55:01;;;;;;;2.50;1.23;;;19.40;79.80;;;;;;5047286;28;20029;-64
2023/08/05 06:57:27;;;;;;;1.10;1.00;;;19.40;79.80;;;;;;5046070;28;20033;-64
2023/08/05 06:59:53;;;;;;;1.33;1.13;;;19.40;79.70;;;;;;5043029;28;20044;-64
2023/08/05 07:02:19;;;;;;;2.92;1.30;;;19.50;79.70;;;;;;5054097;28;20395;-63
2023/08/05 07:04:45;;;;;;;1.35;1.08;;;19.50;79.60;;;;;;5046193;28;20055;-63
2023/08/05 07:07:11;;;;;;;2.28;1.40;;;19.60;79.50;;;;;;5046703;28;20134;-63
2023/08/05 07:09:36;;;;;;;2.13;1.40;;;19.60;79.30;;;;;;5045165;28;20103;-62
2023/08/05 07:12:02;;;;;;;1.83;1.23;;;19.70;79.20;;;;;;5049502;28;20476;-61
2023/08/05 07:14:28;;;;;;;1.30;1.20;;;19.80;79.20;;;;;;5047835;28;20130;-63
2023/08/05 07:16:54;;;;;;;1.70;1.25;;;19.90;79.00;;;;;;5050802;28;20037;-64
2023/08/05 07:19:19;;;;;;;1.20;1.10;;;19.80;78.90;;;;;;5047660;28;20052;-64
2023/08/05 07:21:45;;;;;;;3.92;1.58;;;19.80;79.00;;;;;;5048728;28;20055;-63
2023/08/05 07:24:11;;;;;;;5.15;1.88;;;19.70;79.10;;;;;;5050855;28;20033;-62
2023/08/05 07:26:37;;;;;;;5.70;2.33;;;19.70;79.10;;;;;;5043493;28;20034;-63
2023/08/05 07:29:02;;;;;;;3.65;1.20;;;19.50;79.10;;;;;;5039774;28;20040;-65
2023/08/05 07:31:28;;;;;;;4.05;1.83;;;19.40;79.30;;;;;;5054120;28;20395;-64
2023/08/05 07:33:54;;;;;;;2.38;1.80;;;19.40;80.20;;;;;;5049529;28;20033;-64
2023/08/05 07:36:22;;;;;;;2.15;1.38;;;19.50;79.50;;;;;;5048211;28;20036;-63
2023/08/05 07:38:50;;;;;;;3.03;1.67;;;19.70;79.40;;;;;;5051701;28;20473;-65
2023/08/05 07:41:16;;;;;;;1.88;1.63;;;19.80;79.10;;;;;;5051471;28;20127;-63
2023/08/05 07:43:42;;;;;;;3.33;1.80;;;20.00;78.90;;;;;;5044010;28;20147;-63
2023/08/05 07:46:11;;;;;;;3.03;2.00;;;20.10;78.50;;;;;;5046766;28;20029;-64
2023/08/05 07:48:39;;;;;;;2.97;2.08;;;20.20;78.30;;;;;;5051805;28;20413;-67
2023/08/05 07:51:06;;;;;;;2.42;1.65;;;20.30;78.20;;;;;;5048499;28;20030;-64
2023/08/05 07:53:41;;;;;;;3.33;1.40;;;20.60;77.90;;;;;;5041973;28;20376;-63
2023/08/05 07:56:14;;;;;;;1.15;1.02;;;20.80;77.40;;;;;;5045508;28;20043;-64
2023/08/05 07:58:44;;;;;;;1.38;1.10;;;20.80;77.00;;;;;;5048794;28;20452;-63
2023/08/05 08:01:12;;;;;;;2.17;1.63;;;20.80;76.70;;;;;;5044480;28;20098;-62
2023/08/05 08:03:37;;;;;;;2.17;1.45;;;20.70;76.10;;;;;;5051477;28;20076;-62
2023/08/05 08:06:03;;;;;;;1.95;1.70;;;20.50;76.20;;;;;;5048222;28;20029;-62
2023/08/05 08:08:29;;;;;;;2.90;1.42;;;20.50;76.40;;;;;;5048182;28;20432;-63
2023/08/05 08:10:55;;;;;;;2.88;1.48;;;20.50;76.70;;;;;;5047571;28;20656;-61
2023/08/05 08:13:20;;;;;;;1.48;1.10;;;20.40;76.90;;;;;;5040592;28;20510;-62
2023/08/05 08:15:46;;;;;;;4.25;1.33;;;20.40;77.00;;;;;;5037472;28;20028;-62
2023/08/05 08:18:12;;;;;;;2.13;1.20;;;20.40;76.90;;;;;;5043011;28;20068;-62
2023/08/05 08:20:37;;;;;;;1.05;0.85;;;20.40;77.00;;;;;;5030240;28;20056;-62
2023/08/05 08:23:03;;;;;;;0.85;0.80;;;20.40;77.10;;;;;;5049329;28;20057;-63
2023/08/05 08:25:29;;;;;;;4.75;1.58;;;20.60;76.90;;;;;;5047177;28;20120;-63
2023/08/05 08:27:54;;;;;;;1.83;1.60;;;20.80;76.60;;;;;;5050258;28;20406;-61
2023/08/05 08:30:20;;;;;;;4.70;1.50;;;20.90;76.00;;;;;;5041324;28;20063;-62
2023/08/05 08:32:46;;;;;;;1.92;1.30;;;21.10;75.50;;;;;;5046518;28;20061;-62
2023/08/05 08:35:11;;;;;;;2.13;1.23;;;21.10;75.20;;;;;;5047322;28;20116;-62
2023/08/05 08:37:37;;;;;;;1.92;1.33;;;21.30;74.70;;;;;;5044014;28;20403;-62
2023/08/05 08:40:04;;;;;;;2.45;1.75;;;21.30;73.80;;;;;;5049976;28;20472;-63
2023/08/05 08:42:31;;;;;;;1.38;1.00;;;21.30;73.60;;;;;;5053588;28;20559;-63
2023/08/05 08:45:00;;;;;;;1.60;1.08;;;21.40;73.80;;;;;;5053362;28;20029;-63
2023/08/05 08:47:26;;;;;;;3.03;1.30;;;21.40;73.20;;;;;;5053581;28;20033;-63
2023/08/05 08:49:54;;;;;;;2.45;1.20;;;21.50;72.90;;;;;;5046516;28;20024;-63
2023/08/05 08:52:20;;;;;;;2.95;1.05;;;21.50;73.10;;;;;;5045885;28;20025;-63
2023/08/05 08:54:50;;;;;;;1.35;1.05;;;21.60;73.30;;;;;;5056247;28;20468;-65
2023/08/05 08:57:16;;;;;;;1.15;0.93;;;21.50;72.80;;;;;;5052540;28;20028;-63
2023/08/05 08:59:42;;;;;;;3.05;1.58;;;21.50;72.90;;;;;;5051390;28;20042;-63
2023/08/05 09:02:24;;;;;;;3.35;1.10;;;21.50;72.90;;;;;;5050566;28;20033;-63
2023/08/05 09:04:52;;;;;;;0.70;0.70;;;21.40;73.00;;;;;;5051004;28;20035;-63
2023/08/05 09:07:25;;;;;;;1.60;1.40;;;21.30;73.20;;;;;;5046128;28;20030;-64
2023/08/05 09:09:51;;;;;;;0.70;0.60;;;21.20;73.50;;;;;;5053156;28;20033;-64
2023/08/05 09:12:17;;;;;;;1.23;1.13;;;21.20;73.60;;;;;;5052905;28;20026;-61
2023/08/05 09:14:43;;;;;;;1.13;0.85;;;21.20;73.40;;;;;;5038192;28;20052;-62
2023/08/05 09:17:12;;;;;;;1.42;1.30;;;21.00;72.60;;;;;;5045038;28;20484;-62
2023/08/05 09:19:41;;;;;;;1.45;1.27;;;20.90;72.60;;;;;;5047321;28;20040;-62
2023/08/05 09:22:06;;;;;;;2.70;1.38;;;20.90;72.30;;;;;;5056873;28;20123;-62
2023/08/05 09:24:33;;;;;;;1.90;1.38;;;21.00;72.10;;;;;;5050331;28;20513;-62
2023/08/05 09:27:00;;;;;;;1.10;1.00;;;21.00;71.20;;;;;;5046524;28;20025;-62
2023/08/05 09:29:27;;;;;;;1.80;1.17;;;20.90;71.50;;;;;;5038699;28;20056;-62
2023/08/05 09:32:00;;;;;;;1.38;1.00;;;20.90;71.70;;;;;;5053706;28;20439;-62
2023/08/05 09:34:33;;;;;;;1.08;0.98;;;21.00;71.60;;;;;;5050432;28;20045;-62
2023/08/05 09:36:59;;;;;;;1.25;1.00;;;21.10;71.60;;;;;;5043970;28;20420;-62
2023/08/05 09:39:30;;;;;;;0.82;0.70;;;21.10;71.10;;;;;;5056498;28;20414;-62
2023/08/05 09:41:56;;;;;;;2.15;1.65;;;21.30;71.20;;;;;;5053389;28;20056;-62
2023/08/05 09:44:21;;;;;;;1.20;1.00;;;21.60;70.60;;;;;;5051298;28;20565;-62
2023/08/05 09:46:50;;;;;;;1.27;1.17;;;21.80;70.30;;;;;;5051937;28;20033;-62
2023/08/05 09:49:18;;;;;;;1.88;1.60;;;22.00;70.20;;;;;;5051238;28;20525;-62
2023/08/05 09:51:49;;;;;;;2.05;1.38;;;22.10;69.30;;;;;;5050556;28;20132;-62
2023/08/05 09:54:23;;;;;;;1.77;1.27;;;22.10;68.80;;;;;;5052651;28;20024;-63
2023/08/05 09:56:49;;;;;;;0.90;0.88;;;22.10;69.10;;;;;;5044252;28;20017;-62
2023/08/05 09:59:16;;;;;;;2.00;1.45;;;22.10;69.10;;;;;;5049245;28;20035;-62
2023/08/05 10:01:46;;;;;;;2.25;1.90;;;22.20;69.10;;;;;;5042638;28;20120;-63
2023/08/05 10:04:15;;;;;;;2.03;1.67;;;22.20;67.10;;;;;;5043409;28;20057;-64
2023/08/05 10:06:43;;;;;;;1.10;1.00;;;22.10;67.60;;;;;;5046836;28;20056;-64
2023/08/05 10:09:08;;;;;;;1.23;1.13;;;22.30;68.00;;;;;;5052433;28;20029;-62
2023/08/05 10:11:37;;;;;;;1.88;0.90;;;22.50;68.10;;;;;;5049092;28;20083;-62
2023/08/05 10:14:03;;;;;;;1.48;1.33;;;22.70;67.60;;;;;;5047592;28;20033;-62
2023/08/05 10:16:29;;;;;;;1.17;1.15;;;22.80;67.50;;;;;;5043353;28;20025;-63
2023/08/05 10:18:55;;;;;;;1.45;1.35;;;22.80;66.20;;;;;;5043309;28;20483;-63
2023/08/05 10:21:44;;;;;;;1.35;1.17;;;22.70;66.40;;;;;;5049540;28;20056;-63
2023/08/05 10:24:10;;;;;;;0.90;0.90;;;22.70;66.60;;;;;;5033364;28;20464;-63
2023/08/05 10:26:46;;;;;;;1.67;0.77;;;22.70;66.80;;;;;;5040744;28;20059;-63
2023/08/05 10:29:28;;;;;;;2.70;1.25;;;22.70;66.80;;;;;;5045036;28;20032;-63
2023/08/05 10:32:15;;;;;;;;;;;22.60;65.30;;;;;;5041171;28;20032;-63
2023/08/05 10:34:41;;;;;;;1.33;1.23;;;22.50;65.30;;;;;;5043483;28;19916;-67
2023/08/05 10:37:07;;;;;;;1.00;0.98;;;22.50;65.20;;;;;;5045355;28;20062;-67
2023/08/05 10:39:44;;;;;;;2.58;1.02;;;22.60;65.80;;;;;;5044119;28;20037;-67
2023/08/05 10:42:27;;;;;;;1.20;1.00;;;22.60;65.80;;;;;;5042327;28;20044;-67
2023/08/05 10:44:59;;;;;;;1.30;0.93;;;22.70;66.00;;;;;;5047555;28;20542;-68
2023/08/05 10:47:25;;;;;;;0.73;0.70;;;22.60;66.00;;;;;;5037464;28;20038;-67
2023/08/05 10:49:56;;;;;;;2.03;1.10;;;22.60;66.30;;;;;;5041596;28;20040;-66
2023/08/05 10:52:21;;;;;;;0.90;0.90;;;22.60;66.00;;;;;;5041587;28;20029;-66
2023/08/05 10:54:48;;;;;;;1.38;1.10;;;22.60;66.30;;;;;;5047557;28;20090;-67
2023/08/05 10:57:45;;;;;;;0.82;0.82;;;22.60;66.00;;;;;;5039799;28;20029;-67
2023/08/05 11:00:19;;;;;;;1.10;1.00;;;22.60;66.40;;;;;;5058353;28;20515;-67
2023/08/05 11:02:47;;;;;;;1.00;0.90;;;22.70;66.30;;;;;;5049048;28;20040;-67
2023/08/05 11:05:12;;;;;;;0.77;0.77;;;22.80;66.30;;;;;;5047877;28;20036;-67
2023/08/05 11:07:45;;;;;;;1.00;0.90;;;22.80;65.90;;;;;;5040540;28;20033;-67
2023/08/05 11:10:14;;;;;;;0.80;0.80;;;22.60;65.60;;;;;;5041041;28;20435;-67
2023/08/05 11:12:39;;;;;;;1.23;1.13;;;22.50;66.30;;;;;;5036803;28;20026;-66
2023/08/05 11:15:06;;;;;;;0.90;0.90;;;22.40;66.70;;;;;;5042430;28;20044;-67
2023/08/05 11:17:32;;;;;;;0.95;0.70;;;22.40;67.10;;;;;;5042304;28;20119;-67
2023/08/05 11:19:58;;;;;;;1.33;1.05;;;22.50;66.80;;;;;;5046006;28;20037;-67
2023/08/05 11:22:29;;;;;;;0.85;0.85;;;22.70;66.60;;;;;;5051421;28;20024;-67
2023/08/05 11:25:00;;;;;;;0.85;0.85;;;23.00;65.40;;;;;;5054074;28;20017;-66
2023/08/05 11:27:34;;;;;;;3.22;0.82;;;23.30;64.90;;;;;;5046777;28;20024;-68
2023/08/05 11:30:17;;;;;;;0.77;0.73;;;23.60;64.40;;;;;;5043852;28;20040;-66
2023/08/05 11:32:57;;;;;;;1.95;1.35;;;24.00;63.70;;;;;;5044937;28;20063;-67
2023/08/05 11:35:26;;;;;;;1.10;0.90;;;24.20;62.90;;;;;;5048463;28;20207;-67
2023/08/05 11:37:52;;;;;;;0.98;0.90;;;24.20;62.30;;;;;;5042058;28;20029;-67
2023/08/05 11:40:18;;;;;;;0.70;0.70;;;24.10;62.60;;;;;;5050841;28;20025;-67
2023/08/05 11:42:44;;;;;;;1.00;1.00;;;24.10;61.90;;;;;;5050053;28;20029;-67
2023/08/05 11:45:12;;;;;;;0.95;0.90;;;24.10;61.70;;;;;;5049137;28;20095;-67
2023/08/05 11:47:38;;;;;;;0.95;0.88;;;24.10;62.00;;;;;;5038645;28;20052;-67
2023/08/05 11:50:05;;;;;;;1.25;1.17;;;24.10;62.40;;;;;;5040705;28;20029;-67
2023/08/05 11:52:31;;;;;;;1.67;1.00;;;24.00;62.30;;;;;;5048836;28;20472;-66
2023/08/05 11:54:58;;;;;;;0.98;0.90;;;23.80;62.10;;;;;;5049870;28;20040;-67
2023/08/05 11:57:25;;;;;;;1.10;1.00;;;23.50;62.30;;;;;;5055248;28;20037;-66
2023/08/05 11:59:51;;;;;;;1.48;1.15;;;23.30;62.80;;;;;;5047916;28;20056;-68
2023/08/05 12:02:18;;;;;;;0.75;0.73;;;23.10;63.10;;;;;;5030888;28;20048;-63
2023/08/05 12:04:56;;;;;;;1.05;0.98;;;22.90;63.70;;;;;;5049061;28;20049;-63
2023/08/05 12:07:22;;;;;;;0.80;0.80;;;22.70;64.20;;;;;;5040045;28;20423;-67
2023/08/05 12:10:23;;;;;;;0.75;0.70;;;22.50;65.00;;;;;;5046415;28;20476;-66
2023/08/05 12:12:50;;;;;;;1.20;1.10;;;22.30;65.80;;;;;;5007157;28;20046;-65
2023/08/05 12:15:17;;;;;;;1.75;1.02;;;22.00;67.20;;;;;;5035481;28;20055;-64
2023/08/05 12:17:50;;;;;;;1.17;0.90;;;21.60;69.70;;;;;;5042405;28;20048;-64
2023/08/05 12:20:24;;;;;;;0.80;0.80;;;21.10;71.70;;;;;;5054216;28;20595;-64
2023/08/05 12:22:50;;;;;;;0.85;0.80;;;20.70;73.30;;;;;;5049622;28;20025;-65
2023/08/05 12:25:17;;;;;;;0.80;0.80;;;20.40;74.10;;;;;;5042543;28;20119;-65
2023/08/05 12:27:44;;;;;;;0.82;0.75;;;20.20;74.30;;;;;;5042668;28;20610;-65
2023/08/05 12:30:10;;;;;;;0.98;0.70;;;20.10;74.80;;;;;;5054041;28;20391;-65
2023/08/05 12:32:36;;;;;;;1.35;1.25;;;20.00;75.30;;;;;;5056371;28;20119;-64
2023/08/05 12:35:02;;;;;;;0.73;0.73;;;20.10;75.40;;;;;;5051219;28;20127;-63
2023/08/05 12:37:28;;;;;;;0.85;0.70;;;20.10;75.50;;;;;;5043767;28;20041;-66
2023/08/05 12:39:54;;;;;;;0.88;0.88;;;20.10;75.60;;;;;;5048549;28;20484;-66
2023/08/05 12:42:19;;;;;;;0.77;0.70;;;20.10;75.50;;;;;;5046848;28;20033;-66
2023/08/05 12:44:45;;;;;;;1.50;1.00;;;20.20;75.70;;;;;;5048249;28;20032;-66
2023/08/05 12:47:11;;;;;;;2.15;0.85;;;20.20;75.60;;;;;;5051713;28;20048;-64